sensor_id;sensor_type;location;lat;lon;timestamp;pressure;altitude;pressure_sealevel;temperature;humidity
48204;BME280;33994;50.998;5.864;2023-05-07T00:01:56;101058.75;;;14.25;91.61
48204;BME280;33994;50.998;5.864;2023-05-07T00:04:59;101066.66;;;14.25;91.65
48204;BME280;33994;50.998;5.864;2023-05-07T00:08:03;101062.28;;;14.24;91.60
48204;BME280;33994;50.998;5.864;2023-05-07T00:11:06;101060.53;;;14.24;91.61
48204;BME280;33994;50.998;5.864;2023-05-07T00:14:11;101062.28;;;14.24;91.66
48204;BME280;33994;50.998;5.864;2023-05-07T00:17:14;101064.94;;;14.22;91.51
48204;BME280;33994;50.998;5.864;2023-05-07T00:20:17;101056.19;;;14.23;91.80
48204;BME280;33994;50.998;5.864;2023-05-07T00:23:20;101068.41;;;14.24;91.68
48204;BME280;33994;50.998;5.864;2023-05-07T00:26:23;101066.69;;;14.23;91.73
48204;BME280;33994;50.998;5.864;2023-05-07T00:29:28;101062.38;;;14.21;91.84
48204;BME280;33994;50.998;5.864;2023-05-07T00:32:31;101055.47;;;14.17;91.88
48204;BME280;33994;50.998;5.864;2023-05-07T00:35:34;101059.88;;;14.16;92.17
48204;BME280;33994;50.998;5.864;2023-05-07T00:38:37;101054.69;;;14.13;92.58
48204;BME280;33994;50.998;5.864;2023-05-07T00:41:40;101053.88;;;14.11;92.95
48204;BME280;33994;50.998;5.864;2023-05-07T00:44:45;101050.47;;;14.06;93.22
48204;BME280;33994;50.998;5.864;2023-05-07T00:47:48;101051.38;;;14.05;93.38
48204;BME280;33994;50.998;5.864;2023-05-07T00:50:51;101050.56;;;14.03;93.67
48204;BME280;33994;50.998;5.864;2023-05-07T00:53:55;101042.66;;;14.03;93.87
48204;BME280;33994;50.998;5.864;2023-05-07T00:56:59;101038.38;;;14.00;94.00
48204;BME280;33994;50.998;5.864;2023-05-07T01:00:04;101039.22;;;14.01;94.14
48204;BME280;33994;50.998;5.864;2023-05-07T01:03:08;101033.97;;;14.01;94.14
48204;BME280;33994;50.998;5.864;2023-05-07T01:06:12;101033.09;;;14.00;94.16
48204;BME280;33994;50.998;5.864;2023-05-07T01:09:15;101043.63;;;14.00;94.31
48204;BME280;33994;50.998;5.864;2023-05-07T01:12:19;101042.78;;;13.98;94.49
48204;BME280;33994;50.998;5.864;2023-05-07T01:15:24;101038.38;;;13.99;94.58
48204;BME280;33994;50.998;5.864;2023-05-07T01:18:28;101039.38;;;13.95;94.78
48204;BME280;33994;50.998;5.864;2023-05-07T01:21:33;101028.03;;;13.93;95.17
48204;BME280;33994;50.998;5.864;2023-05-07T01:24:38;101030.75;;;13.90;95.55
48204;BME280;33994;50.998;5.864;2023-05-07T01:27:41;101027.28;;;13.87;95.70
48204;BME280;33994;50.998;5.864;2023-05-07T01:33:08;101026.59;;;13.81;96.04
48204;BME280;33994;50.998;5.864;2023-05-07T01:36:12;101017.00;;;13.78;95.99
48204;BME280;33994;50.998;5.864;2023-05-07T01:39:16;101008.28;;;13.76;96.00
48204;BME280;33994;50.998;5.864;2023-05-07T01:42:20;101010.09;;;13.74;96.21
48204;BME280;33994;50.998;5.864;2023-05-07T01:45:23;101008.44;;;13.70;96.04
48204;BME280;33994;50.998;5.864;2023-05-07T01:48:28;101005.91;;;13.67;96.32
48204;BME280;33994;50.998;5.864;2023-05-07T01:51:31;101001.63;;;13.63;96.56
48204;BME280;33994;50.998;5.864;2023-05-07T01:54:35;100998.25;;;13.58;96.63
48204;BME280;33994;50.998;5.864;2023-05-07T01:57:39;100991.28;;;13.55;96.69
48204;BME280;33994;50.998;5.864;2023-05-07T02:00:42;100994.84;;;13.53;96.89
48204;BME280;33994;50.998;5.864;2023-05-07T02:03:46;101000.09;;;13.53;96.92
48204;BME280;33994;50.998;5.864;2023-05-07T02:06:49;101007.19;;;13.51;97.00
48204;BME280;33994;50.998;5.864;2023-05-07T02:09:53;101006.31;;;13.49;97.31
48204;BME280;33994;50.998;5.864;2023-05-07T02:12:56;101008.94;;;13.49;97.51
48204;BME280;33994;50.998;5.864;2023-05-07T02:15:59;101007.28;;;13.45;97.72
48204;BME280;33994;50.998;5.864;2023-05-07T02:19:03;101009.97;;;13.43;97.97
48204;BME280;33994;50.998;5.864;2023-05-07T02:22:07;101011.72;;;13.43;98.07
48204;BME280;33994;50.998;5.864;2023-05-07T02:25:10;101009.13;;;13.41;98.20
48204;BME280;33994;50.998;5.864;2023-05-07T02:28:13;101025.78;;;13.40;98.39
48204;BME280;33994;50.998;5.864;2023-05-07T02:31:16;101031.97;;;13.37;98.48
48204;BME280;33994;50.998;5.864;2023-05-07T02:34:21;101027.75;;;13.30;98.72
48204;BME280;33994;50.998;5.864;2023-05-07T02:37:24;101029.63;;;13.25;98.93
48204;BME280;33994;50.998;5.864;2023-05-07T02:40:27;101023.56;;;13.22;99.11
48204;BME280;33994;50.998;5.864;2023-05-07T02:43:30;101031.53;;;13.19;99.23
48204;BME280;33994;50.998;5.864;2023-05-07T02:46:33;101029.75;;;13.19;99.49
48204;BME280;33994;50.998;5.864;2023-05-07T02:49:38;101026.31;;;13.17;99.61
48204;BME280;33994;50.998;5.864;2023-05-07T02:52:41;101024.50;;;13.19;99.44
48204;BME280;33994;50.998;5.864;2023-05-07T02:55:44;101028.94;;;13.17;99.60
48204;BME280;33994;50.998;5.864;2023-05-07T02:58:47;101023.69;;;13.17;99.55
48204;BME280;33994;50.998;5.864;2023-05-07T03:01:50;101029.69;;;13.22;99.47
48204;BME280;33994;50.998;5.864;2023-05-07T03:04:55;101028.75;;;13.25;99.33
48204;BME280;33994;50.998;5.864;2023-05-07T03:07:58;101026.09;;;13.26;99.15
48204;BME280;33994;50.998;5.864;2023-05-07T03:11:01;101020.03;;;13.24;99.14
48204;BME280;33994;50.998;5.864;2023-05-07T03:14:04;101013.06;;;13.23;99.36
48204;BME280;33994;50.998;5.864;2023-05-07T03:17:07;101001.56;;;13.27;99.26
48204;BME280;33994;50.998;5.864;2023-05-07T03:20:12;101011.19;;;13.28;98.98
48204;BME280;33994;50.998;5.864;2023-05-07T03:23:16;101012.03;;;13.29;98.91
48204;BME280;33994;50.998;5.864;2023-05-07T03:26:18;101004.09;;;13.30;98.90
48204;BME280;33994;50.998;5.864;2023-05-07T03:29:22;101008.56;;;13.28;98.69
48204;BME280;33994;50.998;5.864;2023-05-07T03:32:25;101005.88;;;13.30;98.68
48204;BME280;33994;50.998;5.864;2023-05-07T03:35:29;100998.84;;;13.30;98.45
48204;BME280;33994;50.998;5.864;2023-05-07T03:38:33;100998.91;;;13.29;98.30
48204;BME280;33994;50.998;5.864;2023-05-07T03:41:36;101004.09;;;13.30;98.20
48204;BME280;33994;50.998;5.864;2023-05-07T03:44:39;101002.38;;;13.29;98.07
48204;BME280;33994;50.998;5.864;2023-05-07T03:47:42;101012.91;;;13.29;98.09
48204;BME280;33994;50.998;5.864;2023-05-07T03:50:46;101012.09;;;13.26;98.31
48204;BME280;33994;50.998;5.864;2023-05-07T03:53:50;101020.94;;;13.23;98.39
48204;BME280;33994;50.998;5.864;2023-05-07T03:56:53;101021.84;;;13.21;98.47
48204;BME280;33994;50.998;5.864;2023-05-07T03:59:56;101016.63;;;13.19;98.54
48204;BME280;33994;50.998;5.864;2023-05-07T04:02:59;101021.06;;;13.17;98.55
48204;BME280;33994;50.998;5.864;2023-05-07T04:06:04;101029.00;;;13.14;98.61
48204;BME280;33994;50.998;5.864;2023-05-07T04:09:07;101022.84;;;13.15;98.81
48204;BME280;33994;50.998;5.864;2023-05-07T04:12:10;101023.75;;;13.14;98.88
48204;BME280;33994;50.998;5.864;2023-05-07T04:15:13;101022.91;;;13.13;98.95
48204;BME280;33994;50.998;5.864;2023-05-07T04:18:16;101021.97;;;13.16;98.91
48204;BME280;33994;50.998;5.864;2023-05-07T04:21:21;101019.41;;;13.13;98.93
48204;BME280;33994;50.998;5.864;2023-05-07T04:24:24;101017.63;;;13.13;99.03
48204;BME280;33994;50.998;5.864;2023-05-07T04:27:27;101008.91;;;13.13;98.90
48204;BME280;33994;50.998;5.864;2023-05-07T04:30:30;101013.19;;;13.17;98.95
48204;BME280;33994;50.998;5.864;2023-05-07T04:33:34;101013.13;;;13.20;98.83
48204;BME280;33994;50.998;5.864;2023-05-07T04:36:39;101015.69;;;13.23;98.66
48204;BME280;33994;50.998;5.864;2023-05-07T04:39:42;101012.16;;;13.24;98.51
48204;BME280;33994;50.998;5.864;2023-05-07T04:42:45;101010.38;;;13.25;98.38
48204;BME280;33994;50.998;5.864;2023-05-07T04:45:50;101007.75;;;13.25;98.54
48204;BME280;33994;50.998;5.864;2023-05-07T04:48:52;101010.34;;;13.26;98.42
48204;BME280;33994;50.998;5.864;2023-05-07T04:51:57;101010.34;;;13.26;98.39
48204;BME280;33994;50.998;5.864;2023-05-07T04:55:00;101014.72;;;13.27;98.38
48204;BME280;33994;50.998;5.864;2023-05-07T04:58:04;101014.72;;;13.27;98.55
48204;BME280;33994;50.998;5.864;2023-05-07T05:01:07;101026.94;;;13.28;98.49
48204;BME280;33994;50.998;5.864;2023-05-07T05:04:10;101036.53;;;13.29;98.61
48204;BME280;33994;50.998;5.864;2023-05-07T05:07:15;101030.38;;;13.30;98.78
48204;BME280;33994;50.998;5.864;2023-05-07T05:10:18;101037.28;;;13.34;98.55
48204;BME280;33994;50.998;5.864;2023-05-07T05:13:20;101042.47;;;13.37;98.59
48204;BME280;33994;50.998;5.864;2023-05-07T05:16:23;101045.94;;;13.39;98.55
48204;BME280;33994;50.998;5.864;2023-05-07T05:19:26;101047.63;;;13.42;98.52
48204;BME280;33994;50.998;5.864;2023-05-07T05:22:31;101038.81;;;13.45;98.59
48204;BME280;33994;50.998;5.864;2023-05-07T05:25:34;101045.72;;;13.49;98.42
48204;BME280;33994;50.998;5.864;2023-05-07T05:28:37;101047.41;;;13.53;98.35
48204;BME280;33994;50.998;5.864;2023-05-07T05:31:41;101049.09;;;13.55;98.09
48204;BME280;33994;50.998;5.864;2023-05-07T05:34:44;101048.19;;;13.58;97.96
48204;BME280;33994;50.998;5.864;2023-05-07T05:37:48;101047.28;;;13.59;97.82
48204;BME280;33994;50.998;5.864;2023-05-07T05:40:52;101052.47;;;13.62;97.80
48204;BME280;33994;50.998;5.864;2023-05-07T05:43:55;101059.38;;;13.66;97.66
48204;BME280;33994;50.998;5.864;2023-05-07T05:46:58;101065.31;;;13.73;97.69
48204;BME280;33994;50.998;5.864;2023-05-07T05:50:01;101064.38;;;13.75;97.31
48204;BME280;33994;50.998;5.864;2023-05-07T05:53:06;101073.97;;;13.78;97.07
48204;BME280;33994;50.998;5.864;2023-05-07T05:56:09;101073.13;;;13.76;97.16
48204;BME280;33994;50.998;5.864;2023-05-07T05:59:12;101067.84;;;13.77;97.29
48204;BME280;33994;50.998;5.864;2023-05-07T06:02:15;101066.03;;;13.81;97.34
48204;BME280;33994;50.998;5.864;2023-05-07T06:05:19;101071.16;;;13.85;97.17
48204;BME280;33994;50.998;5.864;2023-05-07T06:08:23;101066.63;;;13.92;97.15
48204;BME280;33994;50.998;5.864;2023-05-07T06:11:26;101059.41;;;14.00;96.75
48204;BME280;33994;50.998;5.864;2023-05-07T06:14:29;101068.88;;;14.06;96.49
48204;BME280;33994;50.998;5.864;2023-05-07T06:17:33;101060.84;;;14.12;96.05
48204;BME280;33994;50.998;5.864;2023-05-07T06:20:36;101065.13;;;14.16;96.09
48204;BME280;33994;50.998;5.864;2023-05-07T06:23:41;101073.75;;;14.21;96.04
48204;BME280;33994;50.998;5.864;2023-05-07T06:26:44;101064.94;;;14.22;96.24
48204;BME280;33994;50.998;5.864;2023-05-07T06:29:47;101069.19;;;14.28;96.36
48204;BME280;33994;50.998;5.864;2023-05-07T06:32:51;101074.25;;;14.35;96.25
48204;BME280;33994;50.998;5.864;2023-05-07T06:35:54;101085.50;;;14.41;96.10
48204;BME280;33994;50.998;5.864;2023-05-07T06:38:58;101087.16;;;14.45;95.96
48204;BME280;33994;50.998;5.864;2023-05-07T06:42:01;101084.38;;;14.51;95.94
48204;BME280;33994;50.998;5.864;2023-05-07T06:45:06;101082.44;;;14.57;95.52
48204;BME280;33994;50.998;5.864;2023-05-07T06:48:09;101075.19;;;14.67;95.12
48204;BME280;33994;50.998;5.864;2023-05-07T06:51:12;101083.50;;;14.83;94.51
48204;BME280;33994;50.998;5.864;2023-05-07T06:54:16;101092.72;;;14.98;94.07
48204;BME280;33994;50.998;5.864;2023-05-07T06:57:20;101087.94;;;15.12;93.37
48204;BME280;33994;50.998;5.864;2023-05-07T07:00:23;101095.28;;;15.30;92.65
48204;BME280;33994;50.998;5.864;2023-05-07T07:03:26;101100.00;;;15.49;91.29
48204;BME280;33994;50.998;5.864;2023-05-07T07:06:29;101097.91;;;15.60;90.19
48204;BME280;33994;50.998;5.864;2023-05-07T07:09:34;101108.84;;;15.76;89.43
48204;BME280;33994;50.998;5.864;2023-05-07T07:12:37;101095.19;;;15.90;89.09
48204;BME280;33994;50.998;5.864;2023-05-07T07:15:40;101093.84;;;16.04;88.35
48204;BME280;33994;50.998;5.864;2023-05-07T07:18:43;101097.84;;;16.16;87.92
48204;BME280;33994;50.998;5.864;2023-05-07T07:21:46;101095.59;;;16.30;87.56
48204;BME280;33994;50.998;5.864;2023-05-07T07:24:50;101096.09;;;16.42;86.86
48204;BME280;33994;50.998;5.864;2023-05-07T07:27:54;101096.38;;;16.59;86.71
48204;BME280;33994;50.998;5.864;2023-05-07T07:30:57;101090.44;;;16.77;85.85
48204;BME280;33994;50.998;5.864;2023-05-07T07:34:00;101089.13;;;16.89;85.24
48204;BME280;33994;50.998;5.864;2023-05-07T07:37:03;101085.41;;;16.95;84.33
48204;BME280;33994;50.998;5.864;2023-05-07T07:40:09;101089.66;;;16.99;83.58
48204;BME280;33994;50.998;5.864;2023-05-07T07:43:13;101080.69;;;17.03;83.38
48204;BME280;33994;50.998;5.864;2023-05-07T07:46:16;101094.59;;;17.08;81.78
48204;BME280;33994;50.998;5.864;2023-05-07T07:49:19;101095.97;;;17.18;81.60
48204;BME280;33994;50.998;5.864;2023-05-07T07:52:23;101089.22;;;17.33;80.62
48204;BME280;33994;50.998;5.864;2023-05-07T07:55:27;101093.25;;;17.43;79.28
48204;BME280;33994;50.998;5.864;2023-05-07T07:58:31;101088.44;;;17.53;78.71
48204;BME280;33994;50.998;5.864;2023-05-07T08:01:34;101096.88;;;17.63;78.07
48204;BME280;33994;50.998;5.864;2023-05-07T08:04:37;101090.47;;;17.68;77.23
48204;BME280;33994;50.998;5.864;2023-05-07T08:07:40;101090.28;;;17.74;77.14
48204;BME280;33994;50.998;5.864;2023-05-07T08:10:45;101095.28;;;17.81;76.31
48204;BME280;33994;50.998;5.864;2023-05-07T08:13:48;101096.00;;;17.86;76.05
48204;BME280;33994;50.998;5.864;2023-05-07T08:16:51;101099.22;;;17.92;75.70
48204;BME280;33994;50.998;5.864;2023-05-07T08:19:55;101101.81;;;17.94;75.32
48204;BME280;33994;50.998;5.864;2023-05-07T08:22:58;101095.47;;;17.98;74.72
48204;BME280;33994;50.998;5.864;2023-05-07T08:26:02;101090.84;;;18.03;74.14
48204;BME280;33994;50.998;5.864;2023-05-07T08:29:06;101090.72;;;18.06;73.96
48204;BME280;33994;50.998;5.864;2023-05-07T08:32:09;101094.84;;;18.13;73.35
48204;BME280;33994;50.998;5.864;2023-05-07T08:35:12;101090.06;;;18.21;72.95
48204;BME280;33994;50.998;5.864;2023-05-07T08:38:15;101092.59;;;18.24;73.14
48204;BME280;33994;50.998;5.864;2023-05-07T08:41:20;101101.06;;;18.33;72.67
48204;BME280;33994;50.998;5.864;2023-05-07T08:44:26;101098.34;;;18.34;72.72
48204;BME280;33994;50.998;5.864;2023-05-07T08:47:34;101104.31;;;18.39;72.74
48204;BME280;33994;50.998;5.864;2023-05-07T08:50:38;101094.72;;;18.37;72.22
48204;BME280;33994;50.998;5.864;2023-05-07T08:53:41;101110.34;;;18.43;71.80
48204;BME280;33994;50.998;5.864;2023-05-07T08:56:46;101105.78;;;18.46;71.41
48204;BME280;33994;50.998;5.864;2023-05-07T08:59:49;101100.50;;;18.46;71.36
48204;BME280;33994;50.998;5.864;2023-05-07T09:02:52;101106.56;;;18.48;71.32
48204;BME280;33994;50.998;5.864;2023-05-07T09:05:55;101107.28;;;18.52;71.35
48204;BME280;33994;50.998;5.864;2023-05-07T09:08:58;101106.22;;;18.56;71.44
48204;BME280;33994;50.998;5.864;2023-05-07T09:12:03;101111.41;;;18.59;71.86
48204;BME280;33994;50.998;5.864;2023-05-07T09:15:07;101117.50;;;18.61;71.95
48204;BME280;33994;50.998;5.864;2023-05-07T09:18:11;101110.44;;;18.62;71.34
48204;BME280;33994;50.998;5.864;2023-05-07T09:21:15;101111.00;;;18.68;71.42
48204;BME280;33994;50.998;5.864;2023-05-07T09:24:18;101109.91;;;18.74;70.96
48204;BME280;33994;50.998;5.864;2023-05-07T09:27:23;101105.25;;;18.79;70.42
48204;BME280;33994;50.998;5.864;2023-05-07T09:30:27;101109.34;;;18.86;69.88
48204;BME280;33994;50.998;5.864;2023-05-07T09:33:31;101103.81;;;18.91;69.27
48204;BME280;33994;50.998;5.864;2023-05-07T09:36:37;101112.59;;;18.93;68.89
48204;BME280;33994;50.998;5.864;2023-05-07T09:39:42;101112.38;;;18.98;68.88
48204;BME280;33994;50.998;5.864;2023-05-07T09:42:46;101108.66;;;19.02;68.04
48204;BME280;33994;50.998;5.864;2023-05-07T09:45:49;101104.19;;;19.02;68.11
48204;BME280;33994;50.998;5.864;2023-05-07T09:48:54;101101.34;;;19.07;68.26
48204;BME280;33994;50.998;5.864;2023-05-07T09:52:01;101109.16;;;19.10;69.01
48204;BME280;33994;50.998;5.864;2023-05-07T09:55:05;101107.94;;;19.17;68.96
48204;BME280;33994;50.998;5.864;2023-05-07T09:58:12;101109.50;;;19.21;68.85
48204;BME280;33994;50.998;5.864;2023-05-07T10:01:17;101111.41;;;19.19;68.07
48204;BME280;33994;50.998;5.864;2023-05-07T10:04:20;101117.78;;;19.15;67.46
48204;BME280;33994;50.998;5.864;2023-05-07T10:07:24;101109.09;;;19.11;66.63
48204;BME280;33994;50.998;5.864;2023-05-07T10:10:27;101118.53;;;19.17;66.82
48204;BME280;33994;50.998;5.864;2023-05-07T10:13:34;101120.84;;;19.25;67.05
48204;BME280;33994;50.998;5.864;2023-05-07T10:16:37;101115.31;;;19.29;67.77
48204;BME280;33994;50.998;5.864;2023-05-07T10:19:41;101121.66;;;19.27;67.68
48204;BME280;33994;50.998;5.864;2023-05-07T10:22:46;101117.97;;;19.29;67.33
48204;BME280;33994;50.998;5.864;2023-05-07T10:25:50;101119.72;;;19.30;66.41
48204;BME280;33994;50.998;5.864;2023-05-07T10:28:57;101114.09;;;19.36;65.52
48204;BME280;33994;50.998;5.864;2023-05-07T10:32:14;101121.84;;;19.41;65.39
48204;BME280;33994;50.998;5.864;2023-05-07T10:35:24;101123.41;;;19.45;65.62
48204;BME280;33994;50.998;5.864;2023-05-07T10:38:29;101126.78;;;19.49;64.73
48204;BME280;33994;50.998;5.864;2023-05-07T10:41:32;101117.09;;;19.48;64.34
48204;BME280;33994;50.998;5.864;2023-05-07T10:44:37;101121.44;;;19.50;63.57
48204;BME280;33994;50.998;5.864;2023-05-07T10:48:11;101124.75;;;19.55;63.00
48204;BME280;33994;50.998;5.864;2023-05-07T10:51:21;101124.59;;;19.58;63.30
48204;BME280;33994;50.998;5.864;2023-05-07T10:54:25;101129.75;;;19.61;63.42
48204;BME280;33994;50.998;5.864;2023-05-07T10:57:34;101132.41;;;19.61;63.30
48204;BME280;33994;50.998;5.864;2023-05-07T11:00:42;101131.47;;;19.62;63.33
48204;BME280;33994;50.998;5.864;2023-05-07T11:04:12;101128.09;;;19.59;63.38
48204;BME280;33994;50.998;5.864;2023-05-07T11:07:29;101130.75;;;19.59;63.12
48204;BME280;33994;50.998;5.864;2023-05-07T11:10:49;101124.75;;;19.55;63.39
48204;BME280;33994;50.998;5.864;2023-05-07T11:13:52;101124.59;;;19.58;63.79
48204;BME280;33994;50.998;5.864;2023-05-07T11:17:02;101125.69;;;19.54;64.04
48204;BME280;33994;50.998;5.864;2023-05-07T11:20:06;101121.22;;;19.55;64.34
48204;BME280;33994;50.998;5.864;2023-05-07T11:26:52;101119.56;;;19.52;64.67
48204;BME280;33994;50.998;5.864;2023-05-07T11:29:55;101116.00;;;19.53;64.48
48204;BME280;33994;50.998;5.864;2023-05-07T11:33:00;101132.69;;;19.55;63.77
48204;BME280;33994;50.998;5.864;2023-05-07T11:36:04;101127.72;;;19.48;63.64
48204;BME280;33994;50.998;5.864;2023-05-07T11:39:23;101134.03;;;19.45;62.74
48204;BME280;33994;50.998;5.864;2023-05-07T11:42:27;101140.72;;;19.35;62.56
48204;BME280;33994;50.998;5.864;2023-05-07T11:45:30;101152.38;;;19.31;63.76
48204;BME280;33994;50.998;5.864;2023-05-07T11:48:34;101162.28;;;19.27;64.83
48204;BME280;33994;50.998;5.864;2023-05-07T11:51:38;101170.72;;;19.16;68.25
48204;BME280;33994;50.998;5.864;2023-05-07T11:54:48;101183.13;;;18.95;72.44
48204;BME280;33994;50.998;5.864;2023-05-07T11:57:52;101172.50;;;18.77;75.67
48204;BME280;33994;50.998;5.864;2023-05-07T12:00:55;101175.09;;;18.56;79.49
48204;BME280;33994;50.998;5.864;2023-05-07T12:04:03;101182.28;;;18.32;82.06
48204;BME280;33994;50.998;5.864;2023-05-07T12:07:06;101186.84;;;18.07;86.04
48204;BME280;33994;50.998;5.864;2023-05-07T12:10:14;101191.03;;;17.90;84.78
48204;BME280;33994;50.998;5.864;2023-05-07T12:13:18;101199.19;;;17.86;87.05
48204;BME280;33994;50.998;5.864;2023-05-07T12:16:21;101190.72;;;17.76;87.77
48204;BME280;33994;50.998;5.864;2023-05-07T12:19:26;101188.16;;;17.74;89.33
48204;BME280;33994;50.998;5.864;2023-05-07T12:22:29;101194.38;;;17.73;89.30
48204;BME280;33994;50.998;5.864;2023-05-07T12:25:34;101186.53;;;17.70;89.81
48204;BME280;33994;50.998;5.864;2023-05-07T12:28:38;101198.00;;;17.69;89.42
48204;BME280;33994;50.998;5.864;2023-05-07T12:31:42;101197.91;;;17.72;89.89
48204;BME280;33994;50.998;5.864;2023-05-07T12:34:49;101192.44;;;17.77;90.57
48204;BME280;33994;50.998;5.864;2023-05-07T12:37:55;101194.84;;;17.83;92.97
48204;BME280;33994;50.998;5.864;2023-05-07T12:40:57;101197.59;;;17.80;95.04
48204;BME280;33994;50.998;5.864;2023-05-07T12:44:00;101198.47;;;17.81;95.31
48204;BME280;33994;50.998;5.864;2023-05-07T12:47:06;101201.84;;;17.84;95.64
48204;BME280;33994;50.998;5.864;2023-05-07T12:50:12;101204.28;;;17.90;95.59
48204;BME280;33994;50.998;5.864;2023-05-07T12:53:15;101204.09;;;17.95;94.91
48204;BME280;33994;50.998;5.864;2023-05-07T12:56:18;101203.84;;;18.01;94.05
48204;BME280;33994;50.998;5.864;2023-05-07T12:59:31;101200.03;;;18.08;92.80
48204;BME280;33994;50.998;5.864;2023-05-07T13:02:34;101201.44;;;18.17;90.37
48204;BME280;33994;50.998;5.864;2023-05-07T13:05:41;101205.50;;;18.26;89.60
48204;BME280;33994;50.998;5.864;2023-05-07T13:08:44;101198.09;;;18.34;89.40
48204;BME280;33994;50.998;5.864;2023-05-07T13:11:48;101202.19;;;18.42;87.84
48204;BME280;33994;50.998;5.864;2023-05-07T13:14:51;101205.41;;;18.49;85.76
48204;BME280;33994;50.998;5.864;2023-05-07T13:17:54;101198.06;;;18.56;85.39
48204;BME280;33994;50.998;5.864;2023-05-07T13:20:59;101203.06;;;18.63;85.38
48204;BME280;33994;50.998;5.864;2023-05-07T13:24:03;101203.59;;;18.71;83.78
48204;BME280;33994;50.998;5.864;2023-05-07T13:27:07;101200.72;;;18.78;81.92
48204;BME280;33994;50.998;5.864;2023-05-07T13:30:10;101208.31;;;18.85;81.25
48204;BME280;33994;50.998;5.864;2023-05-07T13:33:13;101204.75;;;18.86;81.74
48204;BME280;33994;50.998;5.864;2023-05-07T13:36:18;101209.09;;;18.87;82.06
48204;BME280;33994;50.998;5.864;2023-05-07T13:39:21;101215.13;;;18.91;81.69
48204;BME280;33994;50.998;5.864;2023-05-07T13:42:24;101208.03;;;18.91;81.37
48204;BME280;33994;50.998;5.864;2023-05-07T13:45:27;101211.63;;;18.90;80.83
48204;BME280;33994;50.998;5.864;2023-05-07T13:48:30;101208.00;;;18.93;80.10
48204;BME280;33994;50.998;5.864;2023-05-07T13:51:35;101213.22;;;18.94;78.66
48204;BME280;33994;50.998;5.864;2023-05-07T13:54:38;101208.75;;;18.95;78.05
48204;BME280;33994;50.998;5.864;2023-05-07T13:57:41;101204.28;;;18.97;77.65
48204;BME280;33994;50.998;5.864;2023-05-07T14:00:44;101213.28;;;18.93;78.42
48204;BME280;33994;50.998;5.864;2023-05-07T14:03:47;101217.25;;;18.83;78.57
48204;BME280;33994;50.998;5.864;2023-05-07T14:06:52;101206.13;;;18.75;78.12
48204;BME280;33994;50.998;5.864;2023-05-07T14:09:56;101211.63;;;18.70;77.13
48204;BME280;33994;50.998;5.864;2023-05-07T14:13:00;101209.31;;;18.62;75.38
48204;BME280;33994;50.998;5.864;2023-05-07T14:16:04;101207.59;;;18.60;75.52
48204;BME280;33994;50.998;5.864;2023-05-07T14:19:07;101211.97;;;18.61;74.95
48204;BME280;33994;50.998;5.864;2023-05-07T14:22:13;101218.31;;;18.57;74.05
48204;BME280;33994;50.998;5.864;2023-05-07T14:25:16;101217.47;;;18.56;74.28
48204;BME280;33994;50.998;5.864;2023-05-07T14:28:19;101223.56;;;18.58;74.96
48204;BME280;33994;50.998;5.864;2023-05-07T14:31:22;101220.94;;;18.58;74.84
48204;BME280;33994;50.998;5.864;2023-05-07T14:34:26;101218.28;;;18.58;74.98
48204;BME280;33994;50.998;5.864;2023-05-07T14:37:30;101215.63;;;18.58;75.41
48204;BME280;33994;50.998;5.864;2023-05-07T14:40:34;101217.19;;;18.64;75.82
48204;BME280;33994;50.998;5.864;2023-05-07T14:43:37;101220.44;;;18.70;76.33
48204;BME280;33994;50.998;5.864;2023-05-07T14:46:40;101216.94;;;18.70;75.89
48204;BME280;33994;50.998;5.864;2023-05-07T14:49:43;101217.66;;;18.74;76.65
48204;BME280;33994;50.998;5.864;2023-05-07T14:52:48;101215.00;;;18.74;75.38
48204;BME280;33994;50.998;5.864;2023-05-07T14:55:51;101223.09;;;18.70;74.91
48204;BME280;33994;50.998;5.864;2023-05-07T14:58:54;101216.94;;;18.70;73.98
48204;BME280;33994;50.998;5.864;2023-05-07T15:01:57;101223.09;;;18.70;73.45
48204;BME280;33994;50.998;5.864;2023-05-07T15:05:01;101224.03;;;18.69;71.90
48204;BME280;33994;50.998;5.864;2023-05-07T15:08:05;101225.00;;;18.67;70.16
48204;BME280;33994;50.998;5.864;2023-05-07T15:11:08;101225.13;;;18.64;69.63
48204;BME280;33994;50.998;5.864;2023-05-07T15:14:11;101234.94;;;18.62;69.63
48204;BME280;33994;50.998;5.864;2023-05-07T15:17:15;101231.41;;;18.61;70.00
48204;BME280;33994;50.998;5.864;2023-05-07T15:20:18;101231.28;;;18.64;69.99
48204;BME280;33994;50.998;5.864;2023-05-07T15:23:22;101233.16;;;18.62;69.60
48204;BME280;33994;50.998;5.864;2023-05-07T15:26:25;101231.28;;;18.64;69.74
48204;BME280;33994;50.998;5.864;2023-05-07T15:29:28;101232.00;;;18.68;69.65
48204;BME280;33994;50.998;5.864;2023-05-07T15:32:32;101239.91;;;18.69;69.83
48204;BME280;33994;50.998;5.864;2023-05-07T15:35:35;101238.03;;;18.71;70.00
48204;BME280;33994;50.998;5.864;2023-05-07T15:38:40;101245.13;;;18.71;70.29
48204;BME280;33994;50.998;5.864;2023-05-07T15:41:43;101239.75;;;18.72;70.67
48204;BME280;33994;50.998;5.864;2023-05-07T15:44:45;101255.81;;;18.69;70.99
48204;BME280;33994;50.998;5.864;2023-05-07T15:47:49;101250.50;;;18.69;71.26
48204;BME280;33994;50.998;5.864;2023-05-07T15:50:52;101251.38;;;18.70;71.73
48204;BME280;33994;50.998;5.864;2023-05-07T15:53:56;101253.22;;;18.68;71.83
48204;BME280;33994;50.998;5.864;2023-05-07T15:57:00;101257.53;;;18.70;71.86
48204;BME280;33994;50.998;5.864;2023-05-07T16:00:04;101253.22;;;18.68;72.02
48204;BME280;33994;50.998;5.864;2023-05-07T16:03:07;101264.81;;;18.65;72.33
48204;BME280;33994;50.998;5.864;2023-05-07T16:06:10;101257.78;;;18.64;72.94
48204;BME280;33994;50.998;5.864;2023-05-07T16:09:15;101260.50;;;18.63;73.46